Time;durP1;ratioP1;P1;durP2;ratioP2;P2;SDS_P1;SDS_P2;PMS_P1;PMS_P2;Temp;Humidity;BMP_temperature;BMP_pressure;BME280_temperature;BME280_humidity;BME280_pressure;Samples;Min_cycle;Max_cycle;Signal;HPM_P1;HPM_P2
2022/05/14 00:01:45;;;;;;;8.08;4.95;;;;;;;14.65;100.00;100845.16;1693002;84;21056;-84
2022/05/14 00:04:12;;;;;;;7.17;5.00;;;;;;;14.70;100.00;100857.43;1693033;84;21067;-82
2022/05/14 00:06:40;;;;;;;7.22;5.30;;;;;;;14.76;100.00;100850.78;1659193;85;21156;-84
2022/05/14 00:09:08;;;;;;;12.88;6.03;;;;;;;14.80;100.00;100841.20;1693453;84;21020;-83
2022/05/14 00:14:09;;;;;;;6.62;5.92;;;;;;;14.82;100.00;100831.91;1663967;84;21047;-83
2022/05/14 00:16:37;;;;;;;13.22;5.78;;;;;;;14.83;100.00;100830.45;1693595;83;21564;-84
2022/05/14 00:19:07;;;;;;;9.10;6.10;;;;;;;14.86;100.00;100831.16;1692767;84;21035;-85
2022/05/14 00:21:36;;;;;;;8.25;5.90;;;;;;;14.89;100.00;100829.55;1640197;85;21079;-83
2022/05/14 00:24:06;;;;;;;9.78;6.20;;;;;;;14.92;100.00;100824.04;1640479;86;21109;-82
2022/05/14 00:26:37;;;;;;;9.65;6.30;;;;;;;14.96;100.00;100808.36;1697442;84;20999;-83
2022/05/14 00:29:06;;;;;;;8.18;6.05;;;;;;;15.00;100.00;100807.13;1697957;83;22535;-84
2022/05/14 00:31:35;;;;;;;9.60;6.25;;;;;;;15.03;100.00;100805.52;1658049;85;21138;-84
2022/05/14 00:34:02;;;;;;;9.18;6.10;;;;;;;15.07;100.00;100817.41;1693010;84;21131;-83
2022/05/14 00:36:30;;;;;;;9.38;6.35;;;;;;;15.10;100.00;100814.98;1692864;84;46958;-83
2022/05/14 00:38:57;;;;;;;7.95;6.22;;;;;;;15.12;100.00;100814.36;1692381;84;21494;-83
2022/05/14 00:41:27;;;;;;;8.70;5.85;;;;;;;15.13;100.00;100810.28;1692881;84;21046;-83
2022/05/14 00:44:00;;;;;;;7.78;5.60;;;;;;;15.15;100.00;100810.13;1692779;84;21118;-84
2022/05/14 00:47:01;;;;;;;8.20;6.08;;;;;;;15.13;100.00;100796.34;1692545;84;21215;-85
2022/05/14 00:49:30;;;;;;;;;;;;;;;15.07;100.00;100796.42;1693378;84;21591;-82
2022/05/14 00:51:59;;;;;;;9.00;5.35;;;;;;;15.05;100.00;100818.52;1692889;84;20224;-83
2022/05/14 00:54:44;;;;;;;6.90;5.25;;;;;;;15.00;100.00;100824.17;1657217;85;21087;-84
2022/05/14 00:57:15;;;;;;;8.13;4.87;;;;;;;14.98;100.00;100839.20;1634960;85;21106;-86
2022/05/14 00:59:44;;;;;;;10.60;5.50;;;;;;;14.94;100.00;100836.53;1656993;85;21164;-87
2022/05/14 01:02:11;;;;;;;6.72;5.30;;;;;;;14.91;100.00;100832.87;1693337;84;21039;-89
2022/05/14 01:04:42;;;;;;;8.75;5.22;;;;;;;14.88;100.00;100817.41;1692500;83;20987;-87
2022/05/14 01:07:19;;;;;;;9.35;5.17;;;;;;;14.81;100.00;100807.48;1693336;83;21062;-90
2022/05/14 01:09:52;;;;;;;9.80;5.05;;;;;;;14.76;100.00;100795.28;1657908;85;21120;-93
2022/05/14 01:12:24;;;;;;;7.83;4.53;;;;;;;14.71;100.00;100793.53;1658539;85;21169;-94
2022/05/14 01:14:51;;;;;;;5.85;4.53;;;;;;;14.65;100.00;100790.98;1697293;83;21557;-89
2022/05/14 01:17:19;;;;;;;7.08;4.90;;;;;;;14.58;100.00;100783.78;1697359;84;21070;-91
2022/05/14 01:19:46;;;;;;;9.75;5.25;;;;;;;14.53;100.00;100778.95;1697318;83;21070;-88
2022/05/14 01:22:29;;;;;;;6.95;4.80;;;;;;;14.50;100.00;100781.87;1697552;84;21082;-89
2022/05/14 01:28:22;;;;;;;7.20;4.87;;;;;;;14.43;100.00;100768.94;1699951;83;21022;-89
2022/05/14 01:30:57;;;;;;;6.50;4.85;;;;;;;14.44;100.00;100767.52;1650022;85;21059;-88
2022/05/14 01:33:26;;;;;;;8.58;4.40;;;;;;;14.43;100.00;100761.93;1647675;85;21041;-87
2022/05/14 01:35:55;;;;;;;5.85;4.28;;;;;;;14.39;100.00;100764.95;1649616;85;21051;-89
2022/05/14 01:38:24;;;;;;;10.63;5.22;;;;;;;14.33;100.00;100763.23;1649818;85;21680;-87
2022/05/14 01:40:51;;;;;;;6.20;4.22;;;;;;;14.31;100.00;100765.16;1649658;85;21063;-88
2022/05/14 01:43:19;;;;;;;5.83;4.80;;;;;;;14.27;100.00;100753.28;1649623;85;21110;-86
2022/05/14 01:45:46;;;;;;;6.90;4.65;;;;;;;14.26;100.00;100747.69;1649902;85;21580;-89
2022/05/14 01:48:13;;;;;;;6.40;4.80;;;;;;;14.22;100.00;100744.20;1649598;85;21469;-83
2022/05/14 01:50:41;;;;;;;6.92;4.40;;;;;;;14.14;100.00;100746.17;1638174;86;21110;-82
2022/05/14 01:53:10;;;;;;;7.22;4.92;;;;;;;14.08;100.00;100737.06;1673091;84;21083;-83
2022/05/14 01:55:37;;;;;;;5.80;4.45;;;;;;;14.06;100.00;100738.17;1692574;84;21632;-84
2022/05/14 01:58:36;;;;;;;7.58;4.20;;;;;;;14.04;100.00;100725.22;1692583;84;20996;-85
2022/05/14 02:00:36;;;;;;;6.30;4.28;;;;;;;14.02;100.00;100717.48;1686915;84;21084;-85
2022/05/14 02:03:04;;;;;;;8.00;4.40;;;;;;;13.99;100.00;100716.92;1692612;84;21161;-86
2022/05/14 02:05:31;;;;;;;5.95;4.08;;;;;;;13.98;100.00;100717.91;1692624;84;21617;-86
2022/05/14 02:07:58;;;;;;;8.28;4.45;;;;;;;13.97;100.00;100711.02;1693027;84;21023;-82
2022/05/14 02:10:26;;;;;;;7.85;4.85;;;;;;;13.95;100.00;100697.23;1692668;84;21063;-83
2022/05/14 02:12:53;;;;;;;8.65;4.55;;;;;;;13.87;100.00;100686.11;1692739;84;21055;-84
2022/05/14 02:18:59;;;;;;;9.05;4.47;;;;;;;13.58;100.00;100696.04;1692762;84;21008;-86
2022/05/14 02:21:28;;;;;;;6.75;4.42;;;;;;;13.47;100.00;100708.75;1692686;84;21568;-88
2022/05/14 02:23:56;;;;;;;6.53;4.40;;;;;;;13.49;100.00;100701.60;1692741;84;21517;-85
2022/05/14 02:26:23;;;;;;;6.72;4.33;;;;;;;13.53;100.00;100687.28;1693065;84;21098;-81
2022/05/14 02:28:51;;;;;;;5.35;4.40;;;;;;;13.55;100.00;100685.37;1693827;83;21797;-83
2022/05/14 02:31:34;;;;;;;6.40;4.37;;;;;;;13.59;100.00;100685.08;1693155;84;20991;-82
2022/05/14 02:34:01;;;;;;;6.10;4.05;;;;;;;13.60;100.00;100680.20;1693569;83;21019;-83
2022/05/14 02:36:32;;;;;;;8.33;4.62;;;;;;;13.59;100.00;100674.62;1693545;83;21580;-85
2022/05/14 02:38:59;;;;;;;7.00;5.22;;;;;;;13.56;100.00;100672.64;1668152;84;21560;-86
2022/05/14 02:41:26;;;;;;;9.58;4.50;;;;;;;13.47;100.00;100668.66;1693221;84;21080;-89
2022/05/14 02:43:53;;;;;;;7.17;4.45;;;;;;;13.39;100.00;100668.03;1692761;84;20956;-91
2022/05/14 02:46:21;;;;;;;6.20;4.28;;;;;;;13.29;100.00;100669.28;1693203;83;21091;-93
2022/05/14 02:48:48;;;;;;;6.65;4.62;;;;;;;13.25;100.00;100662.64;1658057;85;21082;-91
2022/05/14 02:51:16;;;;;;;7.87;4.80;;;;;;;13.21;100.00;100659.96;1618586;85;21039;-91
2022/05/14 02:53:43;;;;;;;6.70;3.85;;;;;;;13.16;100.00;100662.97;1692929;84;21261;-90
2022/05/14 02:56:10;;;;;;;8.33;4.70;;;;;;;13.11;100.00;100661.20;1693337;84;21034;-88
2022/05/14 03:01:23;;;;;;;7.87;4.37;;;;;;;13.03;100.00;100664.95;1692818;83;20993;-86
2022/05/14 03:03:50;;;;;;;5.50;4.58;;;;;;;12.96;100.00;100669.05;1692888;84;21044;-86
2022/05/14 03:06:18;;;;;;;5.12;4.10;;;;;;;12.90;100.00;100666.46;1692862;84;21172;-87
2022/05/14 03:08:46;;;;;;;5.50;4.28;;;;;;;12.85;100.00;100666.03;1658596;85;21027;-86
2022/05/14 03:11:13;;;;;;;6.35;3.83;;;;;;;12.79;100.00;100669.98;1697697;84;21130;-87
2022/05/14 03:13:41;;;;;;;5.15;4.05;;;;;;;12.75;100.00;100669.90;1696959;83;21702;-87
2022/05/14 03:16:08;;;;;;;5.72;4.22;;;;;;;12.72;100.00;100673.60;1697487;83;21082;-88
2022/05/14 03:18:35;;;;;;;7.22;4.50;;;;;;;12.74;100.00;100680.00;1680021;84;21141;-87
2022/05/14 03:21:03;;;;;;;5.15;4.00;;;;;;;12.80;100.00;100687.81;1697714;84;21482;-89
2022/05/14 03:23:31;;;;;;;7.50;4.12;;;;;;;12.84;100.00;100687.42;1697931;84;21581;-88
2022/05/14 03:25:58;;;;;;;5.55;3.75;;;;;;;12.88;100.00;100682.77;1697355;83;21106;-88
2022/05/14 03:28:26;;;;;;;8.55;4.45;;;;;;;12.89;100.00;100685.73;1697234;84;21102;-86
2022/05/14 03:30:54;;;;;;;5.67;3.70;;;;;;;12.90;100.00;100687.37;1697617;83;21243;-86
2022/05/14 03:33:23;;;;;;;5.45;3.80;;;;;;;12.94;100.00;100692.70;1697248;83;21122;-86
2022/05/14 03:35:51;;;;;;;10.60;4.05;;;;;;;13.00;100.00;100688.75;1697374;84;21028;-86
2022/05/14 03:38:20;;;;;;;8.93;4.00;;;;;;;13.04;100.00;100692.75;1697440;83;21094;-87
2022/05/14 03:40:47;;;;;;;8.65;3.52;;;;;;;13.09;100.00;100698.44;1697661;83;21054;-86
2022/05/14 03:43:14;;;;;;;5.60;3.52;;;;;;;13.13;100.00;100697.20;1697391;83;21623;-87
2022/05/14 03:45:42;;;;;;;4.22;3.25;;;;;;;13.15;100.00;100688.76;1697448;83;21117;-88
2022/05/14 03:48:09;;;;;;;5.50;3.47;;;;;;;13.16;100.00;100682.58;1697921;83;21540;-86
2022/05/14 03:50:38;;;;;;;3.83;3.37;;;;;;;13.22;100.00;100683.84;1697556;83;21094;-86
2022/05/14 03:53:05;;;;;;;4.87;3.47;;;;;;;13.29;100.00;100690.20;1697605;84;21086;-86
2022/05/14 03:55:34;;;;;;;5.15;3.27;;;;;;;13.34;100.00;100695.86;1656202;85;21151;-86
2022/05/14 03:58:01;;;;;;;6.75;3.67;;;;;;;13.40;100.00;100698.47;1657131;85;21694;-86
2022/05/14 04:00:31;;;;;;;6.25;3.47;;;;;;;13.45;100.00;100698.07;1656731;85;21001;-85
2022/05/14 04:02:59;;;;;;;4.72;3.50;;;;;;;13.53;100.00;100696.44;1692468;84;21462;-85
2022/05/14 04:05:26;;;;;;;6.05;4.03;;;;;;;13.63;100.00;100678.14;1692829;84;21113;-84
2022/05/14 04:07:54;;;;;;;7.20;3.75;;;;;;;13.71;100.00;100676.18;1658339;85;21904;-85
2022/05/14 04:10:21;;;;;;;3.98;3.37;;;;;;;13.76;100.00;100671.85;1697200;83;21101;-85
2022/05/14 04:12:48;;;;;;;5.20;3.47;;;;;;;13.81;100.00;100667.87;1697097;83;21019;-84
2022/05/14 04:15:16;;;;;;;3.77;3.25;;;;;;;13.83;100.00;100657.27;1697728;84;21023;-85
2022/05/14 04:17:44;;;;;;;4.60;3.27;;;;;;;13.83;100.00;100659.88;1679038;84;21003;-84
2022/05/14 04:20:11;;;;;;;5.75;3.50;;;;;;;13.79;100.00;100659.79;1657706;85;21847;-85
2022/05/14 04:22:39;;;;;;;5.17;3.10;;;;;;;13.68;100.00;100659.42;1697677;84;21079;-84
2022/05/14 04:25:07;;;;;;;7.17;3.05;;;;;;;13.62;100.00;100656.86;1697905;83;21527;-85
2022/05/14 04:27:35;;;;;;;5.90;3.05;;;;;;;13.66;100.00;100658.76;1697593;83;21107;-85
2022/05/14 04:30:04;;;;;;;3.85;3.20;;;;;;;13.70;100.00;100654.40;1699750;83;21631;-86
2022/05/14 04:32:32;;;;;;;5.78;3.33;;;;;;;13.72;100.00;100659.03;1699770;83;21836;-84
2022/05/14 04:34:59;;;;;;;5.05;3.27;;;;;;;13.73;100.00;100662.48;1699608;83;21016;-85
2022/05/14 04:37:27;;;;;;;3.27;2.95;;;;;;;13.73;100.00;100661.18;1699804;84;21113;-85
2022/05/14 04:39:54;;;;;;;5.87;3.17;;;;;;;13.75;100.00;100665.78;1699726;83;21074;-84
2022/05/14 04:42:22;;;;;;;5.10;3.62;;;;;;;13.77;100.00;100667.78;1699808;83;21051;-85
2022/05/14 04:44:49;;;;;;;4.58;3.30;;;;;;;13.77;100.00;100670.40;1699944;83;21147;-85
2022/05/14 04:47:17;;;;;;;4.35;3.30;;;;;;;13.81;100.00;100662.64;1652256;85;21171;-84
2022/05/14 04:49:47;;;;;;;4.72;3.20;;;;;;;13.86;100.00;100665.67;1652425;85;21047;-84
2022/05/14 04:52:16;;;;;;;4.80;3.20;;;;;;;13.93;100.00;100670.36;1644214;86;21050;-84
2022/05/14 04:54:44;;;;;;;4.85;3.20;;;;;;;13.98;100.00;100671.61;1699569;83;21134;-84
2022/05/14 04:57:13;;;;;;;3.00;2.70;;;;;;;14.04;100.00;100671.55;1699905;83;21993;-84
2022/05/14 04:59:40;;;;;;;5.35;3.50;;;;;;;14.04;100.00;100668.94;1675237;84;21066;-84
2022/05/14 05:04:55;;;;;;;3.20;2.90;;;;;;;13.95;100.00;100661.39;1682998;83;21456;-83
2022/05/14 05:07:23;;;;;;;5.45;3.10;;;;;;;13.89;100.00;100661.95;1649846;85;21568;-86
2022/05/14 05:09:53;;;;;;;5.60;3.12;;;;;;;13.83;100.00;100663.80;1683030;84;21023;-86
2022/05/14 05:12:21;;;;;;;4.90;3.20;;;;;;;13.82;100.00;100656.42;1649702;87;21110;-85
2022/05/14 05:14:48;;;;;;;3.22;2.90;;;;;;;13.78;100.00;100655.05;1685948;84;21062;-84
2022/05/14 05:17:15;;;;;;;3.87;3.15;;;;;;;13.75;100.00;100653.19;1643654;85;21074;-87
2022/05/14 05:19:43;;;;;;;5.40;3.25;;;;;;;13.73;100.00;100655.95;1685896;83;21059;-86
2022/05/14 05:22:10;;;;;;;6.17;3.17;;;;;;;13.73;100.00;100658.06;1693618;83;21143;-85
2022/05/14 05:24:38;;;;;;;5.67;3.50;;;;;;;13.77;100.00;100659.94;1649698;85;21152;-86
2022/05/14 05:27:06;;;;;;;4.30;3.52;;;;;;;13.80;100.00;100660.14;1687424;84;21030;-86
2022/05/14 05:29:33;;;;;;;5.42;3.40;;;;;;;13.83;100.00;100660.69;1695905;83;21631;-87
2022/05/14 05:32:01;;;;;;;3.72;3.00;;;;;;;13.91;100.00;100665.73;1696176;84;21010;-86
2022/05/14 05:34:28;;;;;;;6.83;3.80;;;;;;;13.99;100.00;100656.72;1695920;84;21139;-83
2022/05/14 05:36:55;;;;;;;6.70;3.37;;;;;;;14.07;100.00;100653.42;1696914;84;21487;-84
2022/05/14 05:39:22;;;;;;;4.45;3.37;;;;;;;14.18;100.00;100654.61;1676743;84;21573;-86
2022/05/14 05:41:49;;;;;;;4.83;3.37;;;;;;;14.28;100.00;100651.98;1691711;83;21403;-85
2022/05/14 05:44:17;;;;;;;5.45;3.15;;;;;;;14.42;100.00;100646.31;1695135;84;21528;-86
2022/05/14 05:46:45;;;;;;;6.20;3.50;;;;;;;14.53;100.00;100640.58;1669710;84;21111;-85
2022/05/14 05:49:13;;;;;;;3.98;2.85;;;;;;;14.62;100.00;100648.92;1667168;84;21560;-84
2022/05/14 05:51:40;;;;;;;5.45;3.08;;;;;;;14.70;100.00;100642.52;1670330;84;21075;-84
2022/05/14 05:56:57;;;;;;;4.40;3.02;;;;;;;14.72;100.00;100640.56;1700379;83;21046;-85
2022/05/14 05:59:28;;;;;;;3.52;2.80;;;;;;;14.76;100.00;100645.03;1700417;83;21158;-85
2022/05/14 06:01:55;;;;;;;5.30;2.83;;;;;;;14.88;100.00;100636.52;1700498;83;21026;-86
2022/05/14 06:04:22;;;;;;;4.40;3.10;;;;;;;14.88;100.00;100636.52;1700262;84;21607;-85
2022/05/14 06:06:49;;;;;;;4.70;2.95;;;;;;;14.95;100.00;100633.66;1700640;84;21035;-85
2022/05/14 06:09:21;;;;;;;4.80;3.05;;;;;;;15.03;100.00;100636.39;1700336;83;21077;-85
2022/05/14 06:11:50;;;;;;;;;;;;;;;15.09;100.00;100626.66;1676598;83;21607;-85
2022/05/14 06:14:17;;;;;;;4.12;2.90;;;;;;;15.14;100.00;100634.09;1660221;85;20232;-85
2022/05/14 06:16:45;;;;;;;3.77;2.98;;;;;;;15.17;100.00;100632.47;1629479;86;21094;-85
2022/05/14 06:19:13;;;;;;;6.03;2.80;;;;;;;15.19;100.00;100629.70;1682706;83;21126;-85
2022/05/14 06:21:41;;;;;;;4.50;3.25;;;;;;;15.20;100.00;100633.97;1700252;83;21522;-85
2022/05/14 06:24:23;;;;;;;3.55;2.80;;;;;;;15.18;100.00;100634.63;1700626;83;21191;-86
2022/05/14 06:26:51;;;;;;;4.67;3.25;;;;;;;15.17;100.00;100636.91;1680767;83;21033;-85
2022/05/14 06:29:19;;;;;;;3.50;3.02;;;;;;;15.16;100.00;100631.31;1680321;84;21047;-85
2022/05/14 06:31:46;;;;;;;4.62;3.10;;;;;;;15.13;100.00;100622.75;1647462;85;21038;-85
2022/05/14 06:34:13;;;;;;;5.35;2.80;;;;;;;15.12;100.00;100626.84;1678854;84;21034;-86
2022/05/14 06:36:42;;;;;;;3.80;3.00;;;;;;;15.10;100.00;100626.97;1641657;85;21586;-85
2022/05/14 06:39:09;;;;;;;3.92;3.20;;;;;;;15.09;100.00;100624.03;1666756;84;21674;-85
2022/05/14 06:41:38;;;;;;;5.30;3.60;;;;;;;15.10;100.00;100624.84;1666762;85;21039;-85
2022/05/14 06:44:07;;;;;;;4.53;2.87;;;;;;;15.10;100.00;100620.41;1667125;84;21102;-86
2022/05/14 06:46:36;;;;;;;7.28;3.15;;;;;;;15.09;100.00;100613.55;1681024;83;21065;-86
2022/05/14 06:49:04;;;;;;;6.45;3.50;;;;;;;15.06;100.00;100607.77;1706321;84;21209;-85
2022/05/14 06:51:33;;;;;;;5.42;3.45;;;;;;;14.99;100.00;100607.50;1707109;83;21047;-86
2022/05/14 06:54:08;;;;;;;5.25;3.45;;;;;;;14.94;100.00;100607.94;1684477;84;21066;-86
2022/05/14 06:56:41;;;;;;;4.58;3.20;;;;;;;14.88;100.00;100612.92;1703550;83;21518;-86
2022/05/14 06:59:09;;;;;;;3.40;2.70;;;;;;;14.85;100.00;100613.22;1706300;83;21031;-86
2022/05/14 07:01:38;;;;;;;4.03;2.72;;;;;;;14.85;100.00;100616.66;1706482;84;21153;-85
2022/05/14 07:06:56;;;;;;;3.77;3.12;;;;;;;14.84;100.00;100618.94;1687414;83;21018;-85
2022/05/14 07:09:27;;;;;;;5.90;2.98;;;;;;;14.85;100.00;100624.52;1645430;84;21539;-85
2022/05/14 07:11:57;;;;;;;;;;;;;;;14.85;100.00;100628.45;1626811;87;20987;-85
2022/05/14 07:14:27;;;;;;;6.08;3.35;;;;;;;14.85;100.00;100631.58;1669091;84;21127;-84
2022/05/14 07:16:56;;;;;;;5.25;3.05;;;;;;;14.82;100.00;100638.75;1664744;83;21089;-84
2022/05/14 07:19:23;;;;;;;4.08;2.90;;;;;;;14.81;100.00;100646.76;1623121;87;21097;-83
2022/05/14 07:21:53;;;;;;;4.35;2.67;;;;;;;14.80;100.00;100652.97;1664438;86;21042;-83
2022/05/14 07:24:25;;;;;;;3.42;2.80;;;;;;;14.79;100.00;100654.75;1623106;87;21089;-84
2022/05/14 07:26:57;;;;;;;4.53;3.10;;;;;;;14.77;100.00;100659.80;1681981;83;21237;-83
2022/05/14 07:29:27;;;;;;;4.03;3.12;;;;;;;14.75;100.00;100650.77;1706531;83;21069;-84
2022/05/14 07:31:55;;;;;;;6.75;3.58;;;;;;;14.75;100.00;100651.23;1707044;83;21072;-84
2022/05/14 07:34:23;;;;;;;5.00;3.17;;;;;;;14.76;100.00;100641.09;1707738;83;21070;-85
2022/05/14 07:37:16;;;;;;;4.87;2.92;;;;;;;14.75;100.00;100641.59;1690193;83;21013;-88
2022/05/14 07:39:54;;;;;;;7.05;3.30;;;;;;;14.75;100.00;100629.80;1611972;84;22973;-90
2022/05/14 07:42:48;;;;;;;4.47;2.83;;;;;;;14.76;100.00;100630.61;1673786;84;21023;-91
2022/05/14 07:45:22;;;;;;;4.17;3.10;;;;;;;14.76;100.00;100624.91;1692885;84;21082;-90
2022/05/14 07:47:53;;;;;;;5.12;2.98;;;;;;;14.77;100.00;100624.41;1680314;84;21561;-90
2022/05/14 07:50:20;;;;;;;4.12;3.05;;;;;;;14.77;100.00;100618.70;1647700;86;21117;-89
2022/05/14 07:52:48;;;;;;;7.17;3.08;;;;;;;14.78;100.00;100622.95;1678191;84;21151;-89
2022/05/14 07:55:15;;;;;;;4.72;2.87;;;;;;;14.79;100.00;100616.73;1647594;85;21635;-90
2022/05/14 07:57:43;;;;;;;4.72;3.10;;;;;;;14.85;100.00;100621.09;1671112;83;21096;-89
2022/05/14 08:00:12;;;;;;;4.50;3.33;;;;;;;14.89;100.00;100626.38;1668808;84;21122;-89
2022/05/14 08:02:43;;;;;;;5.50;3.33;;;;;;;14.93;100.00;100627.75;1681494;83;21082;-90
2022/05/14 08:05:13;;;;;;;4.30;2.98;;;;;;;14.96;100.00;100632.69;1673637;84;21103;-89
2022/05/14 08:07:42;;;;;;;4.60;3.05;;;;;;;15.00;100.00;100639.31;1674149;83;21073;-89
2022/05/14 08:10:11;;;;;;;4.95;3.22;;;;;;;15.05;100.00;100633.14;1664865;84;21049;-89
2022/05/14 08:12:43;;;;;;;5.12;3.12;;;;;;;15.10;100.00;100639.27;1668727;84;21039;-90
2022/05/14 08:15:15;;;;;;;5.40;3.40;;;;;;;15.14;100.00;100639.34;1687865;84;21023;-88
2022/05/14 08:17:45;;;;;;;5.58;2.77;;;;;;;15.19;100.00;100637.56;1690806;83;21164;-88
2022/05/14 08:20:14;;;;;;;4.15;2.92;;;;;;;15.22;100.00;100644.66;1692262;84;20999;-88
2022/05/14 08:25:31;;;;;;;3.30;2.80;;;;;;;15.26;100.00;100636.85;1666554;84;21589;-89
2022/05/14 08:27:58;;;;;;;4.28;2.90;;;;;;;15.26;100.00;100636.04;1666041;84;21511;-89
2022/05/14 08:30:30;;;;;;;6.05;2.90;;;;;;;15.29;100.00;100635.73;1672381;84;21142;-89
2022/05/14 08:32:58;;;;;;;4.10;3.05;;;;;;;15.33;100.00;100635.80;1630603;86;21742;-91
2022/05/14 08:35:28;;;;;;;5.12;3.00;;;;;;;15.36;100.00;100642.04;1627595;86;21536;-93
2022/05/14 08:37:57;;;;;;;5.72;3.30;;;;;;;15.36;100.00;100638.11;1653956;86;21644;-91
2022/05/14 08:40:52;;;;;;;5.03;3.40;;;;;;;15.37;100.00;100643.70;1706780;83;21073;-90
2022/05/14 08:43:27;;;;;;;4.47;3.08;;;;;;;15.38;100.00;100641.92;1645010;85;21858;-90
2022/05/14 08:45:55;;;;;;;6.67;3.42;;;;;;;15.40;100.00;100651.28;1621376;88;21953;-90
2022/05/14 08:48:33;;;;;;;7.75;3.47;;;;;;;15.36;100.00;100655.66;1616665;86;21118;-91
2022/05/14 08:51:18;;;;;;;4.85;3.33;;;;;;;15.25;100.00;100652.74;1611205;87;21141;-92
2022/05/14 08:53:48;;;;;;;6.40;3.92;;;;;;;15.10;100.00;100653.69;1611813;87;21082;-88
2022/05/14 09:00:26;;;;;;;5.05;3.58;;;;;;;14.82;100.00;100638.75;1632470;86;21007;-91
2022/05/14 09:02:54;;;;;;;5.28;3.67;;;;;;;14.72;100.00;100639.25;1632226;86;21117;-91
2022/05/14 09:05:30;;;;;;;6.85;3.58;;;;;;;14.64;100.00;100632.55;1636075;86;21536;-91
2022/05/14 09:08:01;;;;;;;4.60;3.60;;;;;;;14.56;100.00;100629.34;1628669;85;21133;-92
2022/05/14 09:10:39;;;;;;;5.55;3.60;;;;;;;14.49;100.00;100619.08;1629366;86;21156;-90
2022/05/14 09:13:14;;;;;;;6.67;3.80;;;;;;;14.44;100.00;100614.73;1636363;87;21069;-90
2022/05/14 09:15:47;;;;;;;5.45;3.83;;;;;;;14.45;100.00;100616.38;1676083;84;21074;-94
2022/05/14 09:18:30;;;;;;;5.28;3.72;;;;;;;14.51;100.00;100607.48;1671367;84;21059;-94
2022/05/14 09:21:02;;;;;;;4.17;3.65;;;;;;;14.63;100.00;100596.82;1663484;86;21582;-89
2022/05/14 09:23:44;;;;;;;6.00;3.98;;;;;;;14.75;100.00;100586.55;1712380;83;21838;-88
2022/05/14 09:26:19;;;;;;;4.45;3.62;;;;;;;14.89;100.00;100583.11;1712072;83;21066;-87
2022/05/14 09:28:54;;;;;;;5.83;3.72;;;;;;;15.02;100.00;100575.77;1683413;84;21098;-89
2022/05/14 09:31:36;;;;;;;4.42;3.47;;;;;;;15.11;100.00;100577.48;1693327;83;21930;-87
2022/05/14 09:34:12;;;;;;;4.72;3.30;;;;;;;15.20;100.00;100573.65;1692753;83;21142;-88
2022/05/14 09:36:44;;;;;;;5.78;3.80;;;;;;;15.27;100.00;100578.17;1688920;83;21239;-88
2022/05/14 09:39:16;;;;;;;4.15;3.40;;;;;;;15.33;100.00;100579.39;1664606;84;21038;-89
2022/05/14 09:41:53;;;;;;;3.58;3.27;;;;;;;15.34;100.00;100579.73;1664802;85;21551;-89
2022/05/14 09:44:39;;;;;;;4.85;3.58;;;;;;;15.34;100.00;100578.42;1610671;84;21089;-89
2022/05/14 09:47:14;;;;;;;3.72;3.40;;;;;;;15.30;100.00;100570.49;1665289;83;21926;-86
2022/05/14 09:49:43;;;;;;;6.37;3.95;;;;;;;15.35;100.00;100559.56;1647851;87;21163;-87
2022/05/14 09:52:13;;;;;;;6.35;3.80;;;;;;;15.43;100.00;100555.20;1676779;84;21746;-88
2022/05/14 09:54:50;;;;;;;5.87;2.98;;;;;;;15.54;100.00;100550.72;1666874;85;21031;-88
2022/05/14 09:57:39;;;;;;;4.42;3.17;;;;;;;15.67;100.00;100545.91;1687351;83;21035;-88
2022/05/14 10:00:36;;;;;;;6.37;3.20;;;;;;;15.80;100.00;100536.85;1707054;84;21070;-87
2022/05/14 10:03:39;;;;;;;4.70;3.00;;;;;;;15.91;100.00;100532.22;1707149;84;21231;-86
2022/05/14 10:06:30;;;;;;;2.95;2.42;;;;;;;15.98;100.00;100527.19;1707069;83;21571;-87
2022/05/14 10:09:21;;;;;;;3.52;3.15;;;;;;;16.09;100.00;100522.98;1698890;84;21541;-86
2022/05/14 10:12:03;;;;;;;3.17;2.75;;;;;;;16.16;100.00;100523.20;1697929;84;21588;-88
2022/05/14 10:14:57;;;;;;;4.35;2.55;;;;;;;16.25;100.00;100526.69;1595485;88;21107;-85
2022/05/14 10:17:48;;;;;;;2.80;2.50;;;;;;;16.34;100.00;100515.77;1611198;86;22231;-87
2022/05/14 10:20:46;;;;;;;2.90;2.57;;;;;;;16.46;100.00;100515.00;1640979;86;21078;-87
2022/05/14 10:29:41;;;;;;;3.25;2.60;;;;;;;16.88;100.00;100506.29;1641933;85;21075;-86
2022/05/14 10:32:13;;;;;;;6.15;2.50;;;;;;;16.93;100.00;100508.00;1630873;87;21168;-89
2022/05/14 10:35:13;;;;;;;3.10;2.45;;;;;;;16.89;100.00;100507.94;1603098;87;21074;-89
2022/05/14 10:38:05;;;;;;;13.78;3.92;;;;;;;16.87;100.00;100498.91;1604974;86;21096;-90
2022/05/14 10:40:43;;;;;;;5.35;2.33;;;;;;;16.84;100.00;100494.45;1612285;87;21043;-88
2022/05/14 10:43:37;;;;;;;2.75;2.45;;;;;;;16.87;100.00;100487.07;1637824;87;21062;-88
2022/05/14 10:46:09;;;;;;;4.28;2.30;;;;;;;16.92;100.00;100480.02;1642255;87;21075;-88
2022/05/14 10:49:07;;;;;;;2.85;2.40;;;;;;;16.94;100.00;100482.03;1647432;86;21137;-89
2022/05/14 10:51:43;;;;;;;2.92;2.58;;;;;;;16.95;100.00;100475.77;1654241;86;21173;-88
2022/05/14 10:54:23;;;;;;;3.25;2.80;;;;;;;16.93;100.00;100472.50;1653546;86;21066;-89
2022/05/14 10:57:05;;;;;;;3.65;2.90;;;;;;;16.92;100.00;100474.76;1649496;86;21177;-88
2022/05/14 10:59:41;;;;;;;4.17;2.77;;;;;;;16.97;100.00;100472.49;1635141;86;21620;-89
2022/05/14 11:02:28;;;;;;;4.08;3.67;;;;;;;17.01;100.00;100478.25;1669705;83;21140;-88
2022/05/14 11:04:56;;;;;;;2.80;2.60;;;;;;;16.98;100.00;100474.14;1621553;87;21084;-88
2022/05/14 11:07:37;;;;;;;2.60;2.40;;;;;;;16.95;100.00;100474.95;1620890;87;21025;-89
2022/05/14 11:10:22;;;;;;;3.12;2.85;;;;;;;16.94;100.00;100478.09;1664533;84;21144;-87
2022/05/14 11:12:52;;;;;;;4.10;2.67;;;;;;;16.88;100.00;100476.05;1670963;84;22005;-87
2022/05/14 11:15:29;;;;;;;3.87;2.42;;;;;;;16.81;100.00;100470.63;1625456;87;21608;-88
2022/05/14 11:18:10;;;;;;;2.85;2.55;;;;;;;16.78;100.00;100468.30;1644860;85;21087;-86
2022/05/14 11:20:57;;;;;;;2.98;2.70;;;;;;;16.77;100.00;100472.41;1615011;87;20991;-86
2022/05/14 11:23:24;;;;;;;6.30;2.85;;;;;;;16.72;100.00;100473.70;1592789;86;21120;-88
2022/05/14 11:26:08;;;;;;;3.20;2.90;;;;;;;16.75;100.00;100467.30;1692718;84;21152;-87
2022/05/14 11:28:37;;;;;;;4.35;2.98;;;;;;;16.79;100.00;100470.43;1692064;84;21083;-87
2022/05/14 11:31:22;;;;;;;3.72;2.90;;;;;;;16.82;100.00;100470.12;1668472;83;21120;-87
2022/05/14 11:33:51;;;;;;;2.60;2.30;;;;;;;16.87;100.00;100473.08;1617579;87;21080;-87
2022/05/14 11:36:23;;;;;;;3.10;2.80;;;;;;;16.91;100.00;100479.69;1678995;84;21746;-87
2022/05/14 11:39:12;;;;;;;5.08;2.77;;;;;;;16.93;100.00;100479.07;1687233;84;21812;-88
2022/05/14 11:41:41;;;;;;;4.10;3.08;;;;;;;16.97;100.00;100479.06;1685845;84;21051;-86
2022/05/14 11:44:10;;;;;;;4.35;2.70;;;;;;;17.07;100.00;100482.86;1645515;85;21144;-88
2022/05/14 11:46:50;;;;;;;3.62;2.65;;;;;;;17.16;100.00;100483.72;1663718;86;21064;-86
2022/05/14 11:49:39;;;;;;;3.77;2.70;;;;;;;17.26;100.00;100476.51;1664678;85;21052;-87
2022/05/14 11:52:24;;;;;;;3.92;3.08;;;;;;;17.37;100.00;100482.42;1652937;83;21214;-86
2022/05/14 11:55:09;;;;;;;5.65;2.90;;;;;;;17.41;100.00;100479.30;1706578;84;21671;-86
2022/05/14 11:57:42;;;;;;;3.25;2.37;;;;;;;17.46;100.00;100476.17;1660905;85;21042;-86
2022/05/14 12:00:28;;;;;;;3.05;2.83;;;;;;;17.57;100.00;100470.59;1675454;84;21410;-87
2022/05/14 12:03:12;;;;;;;5.90;3.05;;;;;;;17.74;100.00;100468.77;1680610;83;21607;-87
2022/05/14 12:05:50;;;;;;;5.20;3.15;;;;;;;18.02;100.00;100464.97;1647040;85;21235;-87
2022/05/14 12:08:24;;;;;;;3.80;3.10;;;;;;;18.31;100.00;100463.09;1648078;86;21067;-87
2022/05/14 12:11:17;;;;;;;4.55;3.40;;;;;;;18.50;100.00;100466.33;1648401;86;21072;-87
2022/05/14 12:13:58;;;;;;;4.20;2.67;;;;;;;18.60;100.00;100461.16;1700035;83;21094;-86